Blacklick, Ohio
Current Conditions -  °F | °C
As of 7:51 PM on Sunday 21 Dec 2014 (Local Time) from KCMH Reporting Station
Broken Clouds Broken Clouds  
Wind Chill: 29°   Ceiling: 25000
Heat Index: 29°   Visibility: 7mi
Dew Point: 22°   Wind: 3mph
Humidity: 75%   Direction: 90°E
Pressure: 30.19"   Gusts: NA
Location:  40°N, 82.81°W
Report Text: KCMH 220051Z 09003KT 7SM BKN250 M02/M06 A3019 RMK AO2 SLP233 T10171056
Loading
Personal Weather Stations






























Interactive Weather Map New forecast layout! Learn more

10-Day Weather Forecast

Advertisements
Track Severe Weather on mobile